createdAt,value
2023-04-16T00:03:30.017Z,13.00
2023-04-16T00:13:30.271Z,14.40
2023-04-16T00:23:31.252Z,12.90
2023-04-16T00:33:31.822Z,14.00
2023-04-16T00:43:32.424Z,13.50
2023-04-16T00:53:32.979Z,16.00
2023-04-16T01:03:33.870Z,15.40
2023-04-16T01:13:34.367Z,13.50
2023-04-16T01:23:35.058Z,12.80
2023-04-16T01:33:35.859Z,11.70
2023-04-16T01:43:38.418Z,9.70
2023-04-16T01:53:37.308Z,10.60
2023-04-16T02:03:38.106Z,9.10
2023-04-16T02:13:38.452Z,10.60
2023-04-16T02:23:39.115Z,11.90
2023-04-16T02:33:39.738Z,8.60
2023-04-16T02:43:40.375Z,8.70
2023-04-16T02:53:41.965Z,9.30
2023-04-16T03:03:41.482Z,10.10
2023-04-16T03:13:42.212Z,12.10
2023-04-16T03:23:42.712Z,9.10
2023-04-16T03:33:43.430Z,9.80
2023-04-16T03:43:43.864Z,10.30
2023-04-16T03:53:44.499Z,8.70
2023-04-16T04:03:45.156Z,9.10
2023-04-16T04:13:45.624Z,9.50
2023-04-16T04:23:46.210Z,8.60
2023-04-16T04:33:46.766Z,8.90
2023-04-16T04:53:47.948Z,7.40
2023-04-16T05:23:50.030Z,7.50
2023-04-16T05:33:50.613Z,7.30
2023-04-16T05:43:51.182Z,8.50
2023-04-16T05:53:52.091Z,6.90
2023-04-16T06:03:52.865Z,8.40
2023-04-16T06:13:53.568Z,7.20
2023-04-16T06:23:54.112Z,7.90
2023-04-16T06:33:54.935Z,7.70
2023-04-16T06:43:55.584Z,7.60
2023-04-16T06:53:56.358Z,7.80
2023-04-16T07:03:57.312Z,5.90
2023-04-16T07:13:57.960Z,6.80
2023-04-16T07:23:58.820Z,6.70
2023-04-16T07:33:59.822Z,6.50
2023-04-16T07:44:00.656Z,6.80
2023-04-16T07:54:01.415Z,5.80
2023-04-16T08:04:02.867Z,6.40
2023-04-16T08:14:03.339Z,6.30
2023-04-16T08:24:04.549Z,7.10
2023-04-16T08:34:05.432Z,5.60
2023-04-16T08:44:06.337Z,6.10
2023-04-16T08:54:07.451Z,5.90
2023-04-16T09:04:08.937Z,5.30
2023-04-16T09:14:09.729Z,5.20
2023-04-16T09:24:10.902Z,5.10
2023-04-16T09:34:12.075Z,5.20
2023-04-16T09:44:13.322Z,4.80
2023-04-16T09:54:14.525Z,4.50
2023-04-16T10:04:15.691Z,5.00
2023-04-16T10:14:16.832Z,4.80
2023-04-16T10:24:18.026Z,5.30
2023-04-16T10:34:19.214Z,4.60
2023-04-16T10:44:20.709Z,4.10
2023-04-16T10:54:21.908Z,4.40
2023-04-16T11:04:23.132Z,4.30
2023-04-16T11:14:24.246Z,4.00
2023-04-16T11:24:26.298Z,3.90
2023-04-16T11:34:27.003Z,4.80
2023-04-16T11:44:28.526Z,4.00
2023-04-16T11:54:29.677Z,4.10
2023-04-16T12:14:32.749Z,4.40
2023-04-16T12:24:34.229Z,3.80
2023-04-16T12:34:48.397Z,4.00
2023-04-16T12:44:36.957Z,3.90
2023-04-16T12:54:38.084Z,4.20
2023-04-16T13:04:39.608Z,3.60
2023-04-16T13:24:42.334Z,3.70
2023-04-16T13:34:43.753Z,3.80
2023-04-16T13:44:45.216Z,3.30
2023-04-16T13:54:47.643Z,3.40
2023-04-16T14:04:47.916Z,2.90
2023-04-16T14:34:52.284Z,3.70
2023-04-16T14:44:53.637Z,2.60
2023-04-16T14:54:55.099Z,3.30
2023-04-16T15:04:56.366Z,4.40
2023-04-16T15:14:57.855Z,4.00
2023-04-16T15:24:59.318Z,3.60
2023-04-16T15:35:00.800Z,4.00
2023-04-16T15:45:02.277Z,3.40
2023-04-16T16:05:04.975Z,3.90
2023-04-16T16:15:06.282Z,2.80
2023-04-16T16:25:07.663Z,3.20
2023-04-16T16:35:09.028Z,4.50
2023-04-16T16:45:10.075Z,3.90
2023-04-16T16:55:11.367Z,3.70
2023-04-16T17:15:15.280Z,4.30
2023-04-16T17:25:14.992Z,3.40
2023-04-16T17:35:16.250Z,3.70
2023-04-16T17:45:17.481Z,3.80
2023-04-16T17:55:18.887Z,4.30
2023-04-16T18:05:23.402Z,4.10
2023-04-16T18:15:21.322Z,4.30
2023-04-16T18:25:33.811Z,4.00
2023-04-16T18:35:24.281Z,4.30
2023-04-16T18:45:28.146Z,4.50
2023-04-16T18:55:25.913Z,4.40
2023-04-16T19:05:28.641Z,5.20
2023-04-16T19:15:31.096Z,4.70
2023-04-16T19:25:29.697Z,4.90
2023-04-16T19:35:30.869Z,5.00
2023-04-16T19:45:31.803Z,4.20
2023-04-16T19:55:33.377Z,4.30
2023-04-16T20:05:34.497Z,4.10
2023-04-16T20:15:36.549Z,4.30
2023-04-16T20:25:37.999Z,3.90
2023-04-16T20:35:37.921Z,4.40
2023-04-16T20:45:39.111Z,3.90
2023-04-16T20:55:39.933Z,3.50
2023-04-16T21:05:41.083Z,4.70
2023-04-16T21:15:42.413Z,3.90
2023-04-16T21:25:44.937Z,3.80
2023-04-16T21:35:44.618Z,4.10
2023-04-16T21:45:47.197Z,4.00
2023-04-16T21:55:46.833Z,3.90
2023-04-16T22:15:49.290Z,3.80
2023-04-16T22:35:51.377Z,3.70
2023-04-16T22:45:52.573Z,3.40
2023-04-16T22:55:53.772Z,3.60
2023-04-16T23:15:55.996Z,3.90
2023-04-16T23:25:57.111Z,3.50
2023-04-16T23:35:59.449Z,3.40
2023-04-16T23:45:59.566Z,3.20
2023-04-16T23:56:00.346Z,3.50
